createdAt,value
2023-03-18T00:01:04.152Z,96926.47
2023-03-18T00:03:32.564Z,96928.38
2023-03-18T00:06:08.507Z,96933.63
2023-03-18T00:08:37.157Z,96930.28
2023-03-18T00:11:08.203Z,96918.28
2023-03-18T00:13:36.203Z,96921.16
2023-03-18T00:16:07.011Z,96908.63
2023-03-18T00:18:35.391Z,96916.25
2023-03-18T00:21:03.901Z,96914.09
2023-03-18T00:23:32.304Z,96917.16
2023-03-18T00:26:00.787Z,96929.06
2023-03-18T00:28:29.243Z,96929.25
2023-03-18T00:30:58.358Z,96928.44
2023-03-18T00:33:27.601Z,96922.59
2023-03-18T00:35:55.592Z,96921.84
2023-03-18T00:38:24.594Z,96923.03
2023-03-18T00:41:01.713Z,96933.13
2023-03-18T00:43:33.659Z,96942.16
2023-03-18T00:46:01.784Z,96944.78
2023-03-18T00:48:31.494Z,96933.00
2023-03-18T00:50:59.343Z,96955.53
2023-03-18T00:53:27.143Z,96946.16
2023-03-18T00:55:55.383Z,96946.38
2023-03-18T00:58:23.241Z,96937.56
2023-03-18T01:00:51.140Z,96935.03
2023-03-18T01:03:19.770Z,96939.34
2023-03-18T01:05:49.047Z,96938.59
2023-03-18T01:08:17.438Z,96935.31
2023-03-18T01:10:45.282Z,96922.19
2023-03-18T01:13:13.462Z,96923.88
2023-03-18T01:15:41.916Z,96922.31
2023-03-18T01:18:11.182Z,96932.69
2023-03-18T01:20:39.536Z,96929.03
2023-03-18T01:23:08.915Z,96926.31
2023-03-18T01:25:37.437Z,96927.16
2023-03-18T01:28:06.340Z,96905.16
2023-03-18T01:30:35.562Z,96918.94
2023-03-18T01:33:04.649Z,96927.44
2023-03-18T01:35:33.283Z,96926.72
2023-03-18T01:38:04.410Z,96922.09
2023-03-18T01:40:34.922Z,96921.03
2023-03-18T01:43:14.454Z,96919.59
2023-03-18T01:45:45.542Z,96912.88
2023-03-18T01:48:16.357Z,96916.44
2023-03-18T01:50:44.901Z,96918.00
2023-03-18T01:53:15.449Z,96919.78
2023-03-18T01:55:45.248Z,96912.75
2023-03-18T01:58:18.647Z,96914.09
2023-03-18T02:00:51.701Z,96910.34
2023-03-18T02:03:21.058Z,96890.69
2023-03-18T02:05:50.383Z,96907.56
2023-03-18T02:08:18.699Z,96907.81
2023-03-18T02:10:49.195Z,96911.97
2023-03-18T02:13:17.826Z,96919.31
2023-03-18T02:15:49.054Z,96912.75
2023-03-18T02:18:20.035Z,96920.94
2023-03-18T02:21:08.483Z,96920.94
2023-03-18T02:23:43.509Z,96925.13
2023-03-18T02:26:18.131Z,96926.81
2023-03-18T02:28:48.416Z,96921.56
2023-03-18T02:31:18.193Z,96914.44
2023-03-18T02:33:46.210Z,96915.19
2023-03-18T02:36:19.727Z,96908.13
2023-03-18T02:38:47.990Z,96921.56
2023-03-18T02:41:18.910Z,96922.72
2023-03-18T02:43:48.494Z,96937.31
2023-03-18T02:46:25.645Z,96942.88
2023-03-18T02:48:54.353Z,96939.16
2023-03-18T02:51:23.321Z,96946.06
2023-03-18T02:53:51.750Z,96942.88
2023-03-18T02:56:19.553Z,96951.88
2023-03-18T02:58:51.241Z,96977.56
2023-03-18T03:01:19.593Z,96977.19
2023-03-18T03:03:47.422Z,96962.69
2023-03-18T03:06:15.329Z,96960.38
2023-03-18T03:08:43.150Z,96973.59
2023-03-18T03:11:11.529Z,96967.50
2023-03-18T03:13:39.942Z,96920.19
2023-03-18T03:16:10.764Z,96979.09
2023-03-18T03:18:38.634Z,96967.22
2023-03-18T03:21:07.880Z,96961.25
2023-03-18T03:23:36.677Z,96968.44
2023-03-18T03:26:05.278Z,96960.03
2023-03-18T03:28:34.410Z,96961.91
2023-03-18T03:31:02.414Z,96966.97
2023-03-18T03:33:31.805Z,96953.56
2023-03-18T03:35:59.715Z,96962.19
2023-03-18T03:38:27.611Z,96957.03
2023-03-18T03:40:55.418Z,96958.72
2023-03-18T03:43:23.188Z,96950.09
2023-03-18T03:45:50.991Z,96964.91
2023-03-18T03:48:18.796Z,96968.28
2023-03-18T03:50:49.211Z,96959.47
2023-03-18T03:53:16.974Z,96967.50
2023-03-18T03:55:44.806Z,96971.59
2023-03-18T03:58:12.594Z,96965.31
2023-03-18T04:00:40.337Z,96965.97
2023-03-18T04:03:08.154Z,96965.69
2023-03-18T04:05:35.943Z,96967.38
2023-03-18T04:08:05.251Z,96966.31
2023-03-18T04:10:34.839Z,96963.59
2023-03-18T04:13:03.227Z,96976.72
2023-03-18T04:15:31.022Z,96971.56
2023-03-18T04:17:58.963Z,96974.94
2023-03-18T04:20:27.667Z,96973.25
2023-03-18T04:22:55.446Z,96979.44
2023-03-18T04:25:24.699Z,96979.63
2023-03-18T04:27:52.785Z,96977.88
2023-03-18T04:30:23.358Z,96972.72
2023-03-18T04:32:51.913Z,96982.91
2023-03-18T04:35:21.055Z,96980.19
2023-03-18T04:37:48.845Z,96991.44
2023-03-18T04:40:16.989Z,96997.59
2023-03-18T04:42:47.816Z,96997.59
2023-03-18T04:45:16.807Z,96991.59
2023-03-18T04:47:45.322Z,96989.19
2023-03-18T04:50:14.340Z,96995.38
2023-03-18T04:52:42.810Z,96990.66
2023-03-18T04:55:11.781Z,96999.09
2023-03-18T04:57:39.826Z,96998.16
2023-03-18T05:00:12.009Z,96994.50
2023-03-18T05:02:40.125Z,97002.47
2023-03-18T05:05:08.715Z,97004.16
2023-03-18T05:07:36.850Z,97000.00
2023-03-18T05:10:06.858Z,96996.00
2023-03-18T05:12:34.789Z,96995.25
2023-03-18T05:15:02.541Z,96998.00
2023-03-18T05:17:31.752Z,96982.84
2023-03-18T05:19:59.567Z,96992.75
2023-03-18T05:22:27.553Z,96992.19
2023-03-18T05:24:55.883Z,96988.91
2023-03-18T05:27:23.897Z,96988.38
2023-03-18T05:29:51.758Z,96995.66
2023-03-18T05:32:19.620Z,96995.13
2023-03-18T05:34:48.719Z,96994.47
2023-03-18T05:37:16.940Z,97000.66
2023-03-18T05:39:45.440Z,97005.13
2023-03-18T05:42:14.251Z,96998.41
2023-03-18T05:44:42.247Z,96996.91
2023-03-18T05:47:10.590Z,97007.75
2023-03-18T05:49:38.442Z,97003.81
2023-03-18T05:52:07.670Z,97000.66
2023-03-18T05:54:35.422Z,96998.41
2023-03-18T05:57:03.236Z,97001.88
2023-03-18T05:59:31.977Z,97002.81
2023-03-18T06:02:00.509Z,97004.59
2023-03-18T06:04:28.840Z,97001.13
2023-03-18T06:06:57.067Z,96995.03
2023-03-18T06:09:27.353Z,97003.09
2023-03-18T06:11:55.343Z,97006.53
2023-03-18T06:14:25.948Z,97009.06
2023-03-18T06:16:54.277Z,97002.97
2023-03-18T06:19:22.157Z,97004.13
2023-03-18T06:21:50.964Z,97006.28
2023-03-18T06:24:18.853Z,97004.03
2023-03-18T06:26:47.990Z,97008.69
2023-03-18T06:29:16.415Z,97012.44
2023-03-18T06:31:44.200Z,97003.81
2023-03-18T06:34:13.119Z,97011.81
2023-03-18T06:36:40.916Z,97019.88
2023-03-18T06:39:08.758Z,97026.78
2023-03-18T06:41:36.507Z,97017.38
2023-03-18T06:44:06.222Z,97023.53
2023-03-18T06:46:34.126Z,97017.88
2023-03-18T06:49:02.376Z,97030.88
2023-03-18T06:51:30.242Z,97031.13
2023-03-18T06:53:58.059Z,97032.28
2023-03-18T06:56:25.911Z,97036.41
2023-03-18T06:58:54.329Z,97024.63
2023-03-18T07:01:23.559Z,97023.03
2023-03-18T07:03:51.586Z,97031.75
2023-03-18T07:06:19.843Z,97025.03
2023-03-18T07:08:47.635Z,97025.56
2023-03-18T07:11:16.697Z,97030.72
2023-03-18T07:13:44.744Z,97028.53
2023-03-18T07:16:12.802Z,97036.66
2023-03-18T07:18:42.802Z,97022.44
2023-03-18T07:21:11.420Z,97047.28
2023-03-18T07:23:41.138Z,97045.50
2023-03-18T07:26:09.072Z,97042.75
2023-03-18T07:28:36.941Z,97036.22
2023-03-18T07:31:04.831Z,97050.03
2023-03-18T07:33:33.244Z,97049.09
2023-03-18T07:36:02.988Z,97051.47
2023-03-18T07:38:30.973Z,97059.38
2023-03-18T07:40:58.725Z,97061.03
2023-03-18T07:43:27.229Z,97070.09
2023-03-18T07:45:55.740Z,97070.94
2023-03-18T07:48:23.535Z,97071.97
2023-03-18T07:50:51.457Z,97073.94
2023-03-18T07:53:21.099Z,97083.53
2023-03-18T07:55:48.929Z,97071.09
2023-03-18T07:58:16.716Z,97062.56
2023-03-18T08:00:45.142Z,97067.81
2023-03-18T08:03:13.994Z,97057.28
2023-03-18T08:05:42.173Z,97065.03
2023-03-18T08:08:09.920Z,97063.19
2023-03-18T08:10:39.146Z,97034.84
2023-03-18T08:13:06.932Z,97056.56
2023-03-18T08:15:35.311Z,97058.53
2023-03-18T08:18:03.349Z,97059.41
2023-03-18T08:20:31.160Z,97062.69
2023-03-18T08:22:59.249Z,97068.25
2023-03-18T08:25:27.112Z,97074.16
2023-03-18T08:27:56.734Z,97070.66
2023-03-18T08:30:28.746Z,97075.00
2023-03-18T08:32:57.418Z,97061.59
2023-03-18T08:35:25.854Z,97071.22
2023-03-18T08:37:53.884Z,97079.16
2023-03-18T08:40:21.754Z,97081.06
2023-03-18T08:42:49.519Z,97081.28
2023-03-18T08:45:19.392Z,97074.81
2023-03-18T08:47:47.347Z,97080.47
2023-03-18T08:50:15.570Z,97073.38
2023-03-18T08:52:43.469Z,97076.97
2023-03-18T08:55:11.641Z,97080.56
2023-03-18T08:57:39.805Z,97084.16
2023-03-18T09:00:09.045Z,97078.59
2023-03-18T09:02:38.294Z,97076.66
2023-03-18T09:05:07.049Z,97070.56
2023-03-18T09:07:34.875Z,97084.50
2023-03-18T09:10:02.645Z,97090.22
2023-03-18T09:12:30.825Z,97078.78
2023-03-18T09:14:59.009Z,97085.75
2023-03-18T09:17:43.762Z,97079.78
2023-03-18T09:20:18.051Z,97091.72
2023-03-18T09:22:46.926Z,97082.72
2023-03-18T09:25:14.803Z,97088.91
2023-03-18T09:27:43.896Z,97080.69
2023-03-18T09:30:12.717Z,97090.00
2023-03-18T09:32:40.592Z,97084.97
2023-03-18T09:35:13.022Z,97081.81
2023-03-18T09:37:42.409Z,97072.22
2023-03-18T09:40:20.818Z,97079.72
2023-03-18T09:42:57.196Z,97074.63
2023-03-18T09:45:29.624Z,97084.94
2023-03-18T09:48:05.960Z,97088.00
2023-03-18T09:50:39.612Z,97085.91
2023-03-18T09:53:15.573Z,97077.28
2023-03-18T09:55:47.012Z,97085.78
2023-03-18T09:58:21.643Z,97070.97
2023-03-18T10:00:49.568Z,97093.84
2023-03-18T10:03:25.761Z,97086.19
2023-03-18T10:05:55.399Z,97091.81
2023-03-18T10:08:35.913Z,97083.28
2023-03-18T10:11:08.051Z,97085.88
2023-03-18T10:13:40.152Z,97091.66
2023-03-18T10:16:14.674Z,97087.09
2023-03-18T10:18:43.340Z,97091.81
2023-03-18T10:21:17.845Z,97094.97
2023-03-18T10:23:51.671Z,97093.81
2023-03-18T10:26:22.431Z,97097.81
2023-03-18T10:29:09.006Z,97105.13
2023-03-18T10:31:48.208Z,97100.28
2023-03-18T10:34:17.576Z,97096.03
2023-03-18T10:36:51.575Z,97100.59
2023-03-18T10:39:24.876Z,97095.78
2023-03-18T10:41:53.590Z,97084.81
2023-03-18T10:44:23.894Z,97090.06
2023-03-18T10:46:57.337Z,97097.50
2023-03-18T10:49:29.080Z,97104.41
2023-03-18T10:52:14.524Z,97090.75
2023-03-18T10:54:46.675Z,97094.66
2023-03-18T10:57:15.862Z,97092.97
2023-03-18T10:59:45.483Z,97090.72
2023-03-18T11:02:19.668Z,97088.50
2023-03-18T11:04:49.921Z,97088.47
2023-03-18T11:07:19.830Z,97089.06
2023-03-18T11:09:49.037Z,97095.06
2023-03-18T11:12:19.447Z,97094.38
2023-03-18T11:14:49.550Z,97091.72
2023-03-18T11:17:23.346Z,97093.97
2023-03-18T11:20:00.831Z,97097.00
2023-03-18T11:22:29.012Z,97085.41
2023-03-18T11:25:07.223Z,97094.34
2023-03-18T11:27:39.086Z,97098.53
2023-03-18T11:30:21.452Z,97099.09
2023-03-18T11:33:00.361Z,97101.25
2023-03-18T11:35:34.339Z,97086.31
2023-03-18T11:38:04.271Z,97095.44
2023-03-18T11:40:33.865Z,97090.56
2023-03-18T11:43:04.589Z,97086.28
2023-03-18T11:45:40.516Z,97090.13
2023-03-18T11:48:15.621Z,97083.03
2023-03-18T11:50:51.780Z,97079.19
2023-03-18T11:53:27.373Z,97086.50
2023-03-18T11:55:59.680Z,97078.44
2023-03-18T11:58:58.189Z,97067.28
2023-03-18T12:01:32.932Z,97074.94
2023-03-18T12:04:21.989Z,97073.72
2023-03-18T12:06:59.092Z,97067.81
2023-03-18T12:09:31.483Z,97068.94
2023-03-18T12:12:10.092Z,97068.19
2023-03-18T12:14:42.336Z,97066.88
2023-03-18T12:17:27.083Z,97067.34
2023-03-18T12:20:32.635Z,97066.50
2023-03-18T12:23:05.470Z,97063.44
2023-03-18T12:25:42.799Z,97070.78
2023-03-18T12:28:20.856Z,97064.91
2023-03-18T12:30:57.392Z,97054.78
2023-03-18T12:33:34.127Z,97049.78
2023-03-18T12:36:09.227Z,97060.72
2023-03-18T12:38:46.189Z,97054.38
2023-03-18T12:41:18.546Z,97065.00
2023-03-18T12:44:08.890Z,97062.63
2023-03-18T12:46:41.382Z,97052.75
2023-03-18T12:49:13.167Z,97052.91
2023-03-18T12:51:45.949Z,97055.13
2023-03-18T12:54:19.137Z,97046.31
2023-03-18T12:56:51.119Z,97047.25
2023-03-18T12:59:24.723Z,97047.84
2023-03-18T13:02:03.769Z,97043.97
2023-03-18T13:04:35.978Z,97044.63
2023-03-18T13:07:08.359Z,97048.94
2023-03-18T13:09:39.625Z,97050.28
2023-03-18T13:12:10.126Z,97047.38
2023-03-18T13:14:47.412Z,97043.38
2023-03-18T13:17:17.759Z,97047.59
2023-03-18T13:19:46.170Z,97043.88
2023-03-18T13:22:29.796Z,97044.22
2023-03-18T13:25:12.730Z,97045.53
2023-03-18T13:27:48.592Z,97034.38
2023-03-18T13:30:25.358Z,97034.59
2023-03-18T13:33:19.256Z,97036.53
2023-03-18T13:36:07.082Z,97037.63
2023-03-18T13:38:56.844Z,97004.72
2023-03-18T13:41:50.394Z,97037.78
2023-03-18T13:44:23.420Z,97036.09
2023-03-18T13:46:59.363Z,97036.50
2023-03-18T13:49:29.894Z,97040.72
2023-03-18T13:51:59.833Z,97048.97
2023-03-18T13:54:34.735Z,97041.00
2023-03-18T13:57:18.804Z,97031.38
2023-03-18T13:59:48.707Z,97036.53
2023-03-18T14:02:46.017Z,97032.59
2023-03-18T14:05:36.967Z,97033.41
2023-03-18T14:08:06.417Z,97033.88
2023-03-18T14:10:34.290Z,97041.47
2023-03-18T14:13:27.250Z,97029.88
2023-03-18T14:15:57.346Z,97021.91
2023-03-18T14:18:29.046Z,97020.72
2023-03-18T14:21:04.632Z,97020.47
2023-03-18T14:23:39.323Z,97019.84
2023-03-18T14:26:09.560Z,97022.03
2023-03-18T14:28:43.403Z,97028.13
2023-03-18T14:31:34.210Z,97020.38
2023-03-18T14:34:28.907Z,97029.88
2023-03-18T14:37:18.959Z,97010.19
2023-03-18T14:39:47.908Z,97017.53
2023-03-18T14:42:28.727Z,97016.63
2023-03-18T14:45:02.343Z,97018.66
2023-03-18T14:47:40.723Z,97023.59
2023-03-18T14:50:17.082Z,97012.97
2023-03-18T14:52:51.347Z,97003.16
2023-03-18T14:55:22.157Z,97010.28
2023-03-18T14:57:50.007Z,97008.03
2023-03-18T15:00:19.423Z,97009.13
2023-03-18T15:02:47.360Z,97002.41
2023-03-18T15:05:19.251Z,97007.25
2023-03-18T15:07:51.499Z,97005.06
2023-03-18T15:10:24.541Z,97005.13
2023-03-18T15:12:59.665Z,97008.97
2023-03-18T15:15:28.591Z,97011.31
2023-03-18T15:17:56.380Z,97000.19
2023-03-18T15:20:25.928Z,96992.75
2023-03-18T15:22:54.246Z,96999.63
2023-03-18T15:25:24.469Z,97002.28
2023-03-18T15:27:56.077Z,96994.06
2023-03-18T15:30:27.476Z,96996.25
2023-03-18T15:33:04.291Z,96988.28
2023-03-18T15:35:34.000Z,96986.19
2023-03-18T15:38:08.049Z,96967.97
2023-03-18T15:40:36.751Z,96978.56
2023-03-18T15:43:07.148Z,96987.09
2023-03-18T15:45:35.657Z,96979.50
2023-03-18T15:48:08.432Z,96977.19
2023-03-18T15:50:42.381Z,96967.03
2023-03-18T15:53:20.056Z,96967.88
2023-03-18T15:55:49.640Z,96964.00
2023-03-18T15:58:23.151Z,96973.69
2023-03-18T16:00:52.973Z,96962.84
2023-03-18T16:03:23.751Z,96960.66
2023-03-18T16:05:57.154Z,96960.66
2023-03-18T16:08:25.491Z,96970.38
2023-03-18T16:10:56.641Z,96964.16
2023-03-18T16:13:26.318Z,96966.47
2023-03-18T16:15:54.392Z,96963.06
2023-03-18T16:18:22.764Z,96962.94
2023-03-18T16:20:51.223Z,96967.75
2023-03-18T16:23:20.972Z,96935.00
2023-03-18T16:25:51.365Z,96946.97
2023-03-18T16:28:22.124Z,96967.44
2023-03-18T16:30:52.156Z,96959.31
2023-03-18T16:33:20.848Z,96965.19
2023-03-18T16:35:53.869Z,96965.50
2023-03-18T16:38:23.135Z,96973.53
2023-03-18T16:40:53.812Z,96964.16
2023-03-18T16:43:23.856Z,96968.47
2023-03-18T16:45:52.178Z,96975.19
2023-03-18T16:48:21.885Z,96971.53
2023-03-18T16:50:51.148Z,96961.69
2023-03-18T16:53:21.643Z,96980.03
2023-03-18T16:55:52.131Z,96969.84
2023-03-18T16:58:22.442Z,96968.09
2023-03-18T17:00:51.219Z,96982.06
2023-03-18T17:03:19.998Z,96977.97
2023-03-18T17:05:50.599Z,96978.88
2023-03-18T17:08:19.118Z,96985.13
2023-03-18T17:10:48.194Z,96987.38
2023-03-18T17:13:20.498Z,96998.63
2023-03-18T17:15:48.682Z,96982.09
2023-03-18T17:18:18.071Z,96994.31
2023-03-18T17:20:47.226Z,96992.63
2023-03-18T17:23:20.472Z,97003.59
2023-03-18T17:25:52.388Z,96998.09
2023-03-18T17:28:29.873Z,96989.19
2023-03-18T17:30:57.847Z,96992.88
2023-03-18T17:33:27.587Z,96992.38
2023-03-18T17:35:56.561Z,96995.97
2023-03-18T17:38:24.951Z,96997.13
2023-03-18T17:40:53.298Z,96994.09
2023-03-18T17:43:27.684Z,97001.22
2023-03-18T17:45:56.727Z,96999.16
2023-03-18T17:48:26.192Z,97009.47
2023-03-18T17:50:56.251Z,97004.56
2023-03-18T17:53:26.900Z,97010.00
2023-03-18T17:55:55.607Z,97006.22
2023-03-18T17:58:26.096Z,97017.47
2023-03-18T18:00:55.638Z,97010.19
2023-03-18T18:03:26.720Z,97008.22
2023-03-18T18:05:55.401Z,97011.56
2023-03-18T18:08:25.469Z,97008.75
2023-03-18T18:10:54.488Z,97014.56
2023-03-18T18:13:24.092Z,97015.09
2023-03-18T18:15:52.775Z,97011.19
2023-03-18T18:18:26.327Z,97004.75
2023-03-18T18:20:56.466Z,97011.69
2023-03-18T18:23:30.040Z,97006.91
2023-03-18T18:26:00.157Z,97003.13
2023-03-18T18:28:33.134Z,97011.34
2023-03-18T18:31:02.514Z,97004.06
2023-03-18T18:33:34.045Z,97015.47
2023-03-18T18:36:02.446Z,97017.69
2023-03-18T18:38:30.857Z,97012.75
2023-03-18T18:41:00.182Z,97009.56
2023-03-18T18:43:28.830Z,97012.72
2023-03-18T18:45:57.805Z,97013.94
2023-03-18T18:48:28.738Z,97010.84
2023-03-18T18:50:58.571Z,97021.91
2023-03-18T18:53:28.230Z,97018.09
2023-03-18T18:55:57.911Z,97010.53
2023-03-18T18:58:29.468Z,97015.25
2023-03-18T19:00:57.700Z,97018.13
2023-03-18T19:03:26.932Z,97011.69
2023-03-18T19:05:55.754Z,97020.59
2023-03-18T19:08:26.802Z,97009.22
2023-03-18T19:10:56.421Z,97023.03
2023-03-18T19:13:24.896Z,97031.22
2023-03-18T19:15:53.443Z,97025.34
2023-03-18T19:18:22.535Z,97029.78
2023-03-18T19:20:51.068Z,97036.28
2023-03-18T19:23:23.109Z,97036.66
2023-03-18T19:25:53.427Z,97037.28
2023-03-18T19:28:47.813Z,97035.59
2023-03-18T19:31:20.949Z,97033.34
2023-03-18T19:33:50.767Z,97014.06
2023-03-18T19:36:24.269Z,97022.34
2023-03-18T19:38:52.671Z,97039.13
2023-03-18T19:41:22.553Z,97039.50
2023-03-18T19:43:50.857Z,97041.09
2023-03-18T19:46:27.710Z,97037.88
2023-03-18T19:48:55.549Z,97014.13
2023-03-18T19:51:23.439Z,97036.19
2023-03-18T19:53:51.258Z,97039.34
2023-03-18T19:56:25.485Z,97037.16
2023-03-18T19:58:54.143Z,97010.75
2023-03-18T20:01:23.006Z,97048.44
2023-03-18T20:03:53.741Z,97047.84
2023-03-18T20:06:21.877Z,97043.13
2023-03-18T20:08:50.453Z,97047.91
2023-03-18T20:11:20.910Z,97038.22
2023-03-18T20:13:50.205Z,97046.13
2023-03-18T20:16:19.584Z,97043.72
2023-03-18T20:18:47.614Z,97044.19
2023-03-18T20:21:20.519Z,97046.94
2023-03-18T20:23:48.521Z,97045.34
2023-03-18T20:26:16.719Z,97057.22
2023-03-18T20:28:45.824Z,97057.69
2023-03-18T20:31:15.228Z,97067.66
2023-03-18T20:33:43.436Z,97061.75
2023-03-18T20:36:15.946Z,97069.78
2023-03-18T20:38:44.611Z,97070.88
2023-03-18T20:41:16.476Z,97068.34
2023-03-18T20:43:44.698Z,97069.19
2023-03-18T20:46:15.635Z,97066.75
2023-03-18T20:48:44.161Z,97068.44
2023-03-18T20:51:20.202Z,97065.91
2023-03-18T20:53:48.424Z,97073.97
2023-03-18T20:56:16.581Z,97073.22
2023-03-18T20:58:44.459Z,97078.50
2023-03-18T21:01:14.919Z,97078.50
2023-03-18T21:03:43.153Z,97076.59
2023-03-18T21:06:14.066Z,97073.22
2023-03-18T21:08:42.182Z,97073.13
2023-03-18T21:11:18.197Z,97069.84
2023-03-18T21:13:46.199Z,97073.22
2023-03-18T21:16:16.808Z,97073.22
2023-03-18T21:18:46.157Z,97063.75
2023-03-18T21:21:20.712Z,97065.53
2023-03-18T21:23:49.000Z,97075.38
2023-03-18T21:26:16.962Z,97072.50
2023-03-18T21:28:44.814Z,97078.41
2023-03-18T21:31:23.462Z,97076.59
2023-03-18T21:33:51.544Z,97071.06
2023-03-18T21:36:19.396Z,97066.28
2023-03-18T21:38:47.230Z,97073.50
2023-03-18T21:41:22.196Z,97070.88
2023-03-18T21:43:51.029Z,97075.28
2023-03-18T21:46:22.025Z,97073.59
2023-03-18T21:48:50.011Z,97070.88
2023-03-18T21:51:37.525Z,97069.06
2023-03-18T21:54:05.765Z,97069.06
2023-03-18T21:56:33.588Z,97069.91
2023-03-18T21:59:01.391Z,97065.69
2023-03-18T22:01:32.388Z,97061.00
2023-03-18T22:04:00.415Z,97078.66
2023-03-18T22:06:28.293Z,97072.56
2023-03-18T22:08:57.377Z,97060.22
2023-03-18T22:11:25.633Z,97062.50
2023-03-18T22:13:54.005Z,97062.38
2023-03-18T22:16:22.010Z,97070.16
2023-03-18T22:18:51.349Z,97056.97
2023-03-18T22:21:22.607Z,97051.69
2023-03-18T22:23:50.770Z,97056.84
2023-03-18T22:26:19.912Z,97056.00
2023-03-18T22:28:48.428Z,97057.69
2023-03-18T22:31:19.617Z,97056.00
2023-03-18T22:33:47.753Z,97063.81
2023-03-18T22:36:18.151Z,97053.03
2023-03-18T22:38:46.282Z,97059.16
2023-03-18T22:41:17.435Z,97063.59
2023-03-18T22:43:45.262Z,97050.25
2023-03-18T22:46:13.536Z,97059.88
2023-03-18T22:48:41.449Z,97051.09
2023-03-18T22:51:09.465Z,97054.59
2023-03-18T22:53:40.609Z,97056.38
2023-03-18T22:56:10.561Z,97062.50
2023-03-18T22:58:38.922Z,97058.31
2023-03-18T23:01:07.313Z,97060.81
2023-03-18T23:03:40.572Z,97057.47
2023-03-18T23:06:08.671Z,97061.06
2023-03-18T23:08:38.024Z,97061.91
2023-03-18T23:11:06.387Z,97062.03
2023-03-18T23:13:37.141Z,97063.59
2023-03-18T23:16:06.122Z,97056.38
2023-03-18T23:18:34.288Z,97056.06
2023-03-18T23:21:02.671Z,97055.59
2023-03-18T23:23:30.810Z,97063.03
2023-03-18T23:26:00.209Z,97060.16
2023-03-18T23:28:28.003Z,97061.81
2023-03-18T23:30:56.302Z,97071.19
2023-03-18T23:33:24.197Z,97062.31
2023-03-18T23:35:52.075Z,97066.63
2023-03-18T23:38:20.348Z,97063.97
2023-03-18T23:40:48.213Z,97065.91
2023-03-18T23:43:17.471Z,97078.25
2023-03-18T23:45:45.833Z,97072.25
2023-03-18T23:48:13.890Z,97077.63
2023-03-18T23:50:41.861Z,97078.63
2023-03-18T23:53:09.867Z,97081.38
2023-03-18T23:55:37.803Z,97078.13
2023-03-18T23:58:05.874Z,97082.53
